Prochaines Courses

Inscriptions en ligne

Connexion

Run&Bike

ODYSSEE RUN & BIKE du 15/06/14 (Réelle 6)
Rang Dossard Nom Prénom Temps Cat Rang Cat Ecart Ecart Cat Club Vitesse Km/h Temps au Km
1 69 THESSE David CUCHEVAL Mathias 00:22:09   1 00:00:00 00:00:00 COT 16,253 03:42
2 21 GUYOT Fabien MATRINGHEN Tony 00:22:09   2 00:00:00 00:00:00 LES PETITS BAIGNEURS 16,253 03:42
3 35 DRANSART Adrien MOULLIERE Richard 00:23:27   3 00:01:18 00:01:18 BERCK TRIATHLON 15,352 03:55
4 4 HURTEL David BOUCLET Bastien 00:23:44   4 00:01:35 00:01:35 TEAM OPALE COYOTE 1 15,169 03:57
5 36 QUEVAL Charles Hubert CARRE   Pauline 00:24:15   5 00:02:06 00:02:06 LILLE 2 LA TENTATION 14,845 04:03
6 68 DEPANNEMAECKER Eric BRUNOT YOANN 00:24:39   6 00:02:30 00:02:30 CAPONORD DUNKERQUE RAID AVENTURE 14,604 04:07
7 85 QUEVAL Jean Jacques BELVILLE   Philippe 00:24:42   7 00:02:33 00:02:33 RETOUR VERS LE FUTUR 14,575 04:07
8 61 BOUTON Rémi RIEZ Gael 00:24:50   8 00:02:41 00:02:41 TIWANAKU CREW 14,497 04:08
9 92 MAQUINGHEN Christophe DUCLOY Kévin 00:25:06   9 00:02:57 00:02:57 JACK ET DANIELS 14,343 04:11
10 16 CARPENTIER Thierry SUEUR Fabrice 00:25:07   10 00:02:58 00:02:58 SPORT EVASION DES 2 CAPS "LES VETERANS" 14,333 04:11
11 50 GODART Jean Christophe DEPLECHIN   David 00:25:07   11 00:02:58 00:02:58 GO DEP TEAM 14,333 04:11
12 47 DELANNOY Bastien LACROIX Olivier 00:25:10   12 00:03:01 00:03:01 LES P'TITS SEINGES 14,305 04:12
13 11 FRANCOIS Gilbert ANDRIEUX Dimitri 00:25:28   13 00:03:19 00:03:19 MARCK'ATHLON 14,136 04:15
14 25 PAVY Frédéric PRUVOT Romain 00:25:37   14 00:03:28 00:03:28 ROMOLO 14,053 04:16
15 66 PRIEZ Julien LEMAIRE Benjamin 00:25:42   15 00:03:33 00:03:33 LES NEOPHYTES 14,008 04:17
16 79 LE BEC Mickael PODEVIN Eric 00:25:54   16 00:03:45 00:03:45 LES ACHARNES 13,900 04:19
17 1 LANDRECIES Loic CROGIEZ José 00:26:11   17 00:04:02 00:04:02 VELOLAND SAINT MARTIN BOULOGNE 13,749 04:22
18 42 LEDEZ Jean-Bernard DUFLOS Henri 00:26:14   18 00:04:05 00:04:05 POMME CANNELLE 13,723 04:22
19 34 MACQUET Bruno GUYOT Rémi 00:26:18   19 00:04:09 00:04:09 OPALE TRAIL NATURE 13,688 04:23
20 58 HACHE Nicolas HERENT Martin 00:26:23   20 00:04:14 00:04:14 POUTINE POWER 13,645 04:24
21 7 DUWAT Fredéric LEVEL Eddy 00:26:36   21 00:04:27 00:04:27 ULYSSE ET TELEMAQUE 13,534 04:26
22 71 RINGUET Fred PERARD Thierry 00:26:41   22 00:04:32 00:04:32 RINGUET-PERARD 13,492 04:27
23 64 BUSSON Elie CABOCHE Antoine 00:26:45   23 00:04:36 00:04:36 TEAM BIANCHI 13,458 04:28
24 87 DEVOLDER Jean-Bernard COURTECUISSE   Julien 00:26:48   24 00:04:39 00:04:39 O'MAX TEAM 13,433 04:28
25 89 LECOUTRE Thierry DEBETTE Florian 00:27:03   25 00:04:54 00:04:54 TEAM OTN 3 13,309 04:31
26 96 LECENDRE Olivier DUMONT Emmanuel 00:27:22   26 00:05:13 00:05:13 LA DEUXIEME CHANCE 13,155 04:34
27 46 FONTAINE Nicolas LEFEBVRE Tony 00:27:25   27 00:05:16 00:05:16 AC OUTREAU NOVICES 13,131 04:34
28 9 MAZURIER Alain PIERRU Reynald 00:27:30   28 00:05:21 00:05:21 LES 2 VENTS TANGUY 13,091 04:35
29 55 DUFRENNE Jacques DUFRENNE Elise 00:27:34   29 00:05:25 00:05:25 PÈRE ET FILLE ESCAP AVENTURE 13,059 04:36
30 73 BARROIS Cédric BARROIS Céline 00:27:35   30 00:05:26 00:05:26 LES CAPELLOIS 13,051 04:36
31 81 LEVEL Fabien NOEL David 00:27:39   31 00:05:30 00:05:30 TEAM CAPELLOIS 13,020 04:37
32 93 DIEUSET Anthony DOYER Laurent 00:27:53   32 00:05:44 00:05:44 OPALE TRAIL NATURE LES JEUNES 12,911 04:39
33 88 LANGLET Mathieu GOSSELIN Rudy 00:27:54   33 00:05:45 00:05:45 LES COYOTTES 3 12,903 04:39
34 8 VICONGNE Geoffrey FOULON Julien 00:28:14   34 00:06:05 00:06:05 LES PETITS NIN-NINS 12,751 04:42
35 86 LESAGE Franck BOYAVAL Stéphane 00:28:21   35 00:06:12 00:06:12 DUNKERQUE RAID AVENTURE 3 12,698 04:44
36 75 DAVIAUD Fabrice KALOLEWSKI Pascal 00:28:37   36 00:06:28 00:06:28 LA SELEçAO DE SAINTE CECILE 12,580 04:46
37 53 GUERVILLE Maxime SUEUR Samuel 00:28:47   37 00:06:38 00:06:38 THE BEST 12,507 04:48
38 30 FRANCOIS Guillaume FIEVET Arnold 00:29:07   38 00:06:58 00:06:58 NULS ET FIERS DE L ETRE 12,364 04:51
39 72 CHARBONNIER Grégory CHARBONNIER   Wilfried 00:29:12   39 00:07:03 00:07:03 CHICOUMI 12,329 04:52
40 15 MONTIGNY Dimitri GAVOIS Cyril 00:29:20   40 00:07:11 00:07:11 LES JEUNOTS DE SPORT EVASION DES 2 CAPS 12,273 04:53
41 76 LECERF Renaud PETA Jeanne estelle 00:29:21   41 00:07:12 00:07:12 ESCAP'AVENTURE MIXTE 12,266 04:54
42 44 GRESSIER Olivier KUSCHNICK Fabrice 00:29:24   42 00:07:15 00:07:15 SPORT ANIM 12,245 04:54
43 28 MAYE Aubin PREVOST Maxime 00:29:30   43 00:07:21 00:07:21 MAXBIN 12,203 04:55
44 59 BELLAMBOIS Stéphane VANDERZYPPE   Ludovic 00:29:31   44 00:07:22 00:07:22 LES 69 12,196 04:55
45 18 SEILLIER Christophe RENOUX Yohan 00:29:44   45 00:07:35 00:07:35 LES GUEULARDS 12,108 04:57
46 56 DRAVIGNY Thibaud CARON William 00:30:10   46 00:08:01 00:08:01 LES WELSH GROS 11,934 05:02
47 52 DAQUIN Gérard DEFOSSE Alexandra 00:30:19   47 00:08:10 00:08:10 LES EDUCS 11,875 05:03
48 98 TEILLIER Thomas DEBOVE Thomas 00:30:19   48 00:08:10 00:08:10 LES THOMA'S 11,875 05:03
49 29 SCHEHR Quentin ROQUIGNY Chloé 00:30:25   49 00:08:16 00:08:16 LES SHETLAND VOLVO 11,836 05:04
50 63 MACQUET Olivier THUILLIER Patrick 00:30:39   50 00:08:30 00:08:30 2DEFOL 11,746 05:07
51 84 KAMINSKI Olivia DEWISPELAERE   Frédéric 00:30:39   51 00:08:30 00:08:30 ARV'ENTURE NORTHWAVE 11,746 05:07
52 23 RUITZ Joseph DAMETTE Odile 00:30:39   52 00:08:30 00:08:30 JULBO RUITZ 11,746 05:07
53 3 TINCHON Didier VANDENBERGUE   Aurélie 00:30:40   53 00:08:31 00:08:31 TEAM AUREDID 11,739 05:07
54 67 BAREGE Aurélien SENTUNE Laura 00:30:49   54 00:08:40 00:08:40 L'AURAL'SBAR 11,682 05:08
55 22 GIGADEN Eddy GIGADEN Mathilde 00:30:56   55 00:08:47 00:08:47 EDDY MATH 11,638 05:09
56 65 RAMBURE Dominique LIGNIER Rodolphe 00:30:57   56 00:08:48 00:08:48 LES BOFS 11,632 05:10
57 97 HOLUIGUE Frédéric DIERKERS Maxime 00:30:59   57 00:08:50 00:08:50 TEAM DU BAR 11,619 05:10
58 31 LAIDEZ Jonathan VIENNE Samuel 00:31:12   58 00:09:03 00:09:03 TEAM SPORTANIM 11,538 05:12
59 94 WAROT Antoine GLACON Guillaume 00:31:19   59 00:09:10 00:09:10 LA CUISSE RAID TEAM 11,495 05:13
60 10 BAILLY François BUTEL David 00:31:25   60 00:09:16 00:09:16 LES BEAUFS 11,459 05:14
61 32 PRUD HOMME Mickael MASCOT   Christophe 00:31:27   61 00:09:18 00:09:18 LES LIMACES 11,447 05:15
62 80 COMPIEGNE Stéphane FEVRIER Antoine 00:31:43   62 00:09:34 00:09:34 LES GIGOLOS 11,350 05:17
63 43 FIN Fabien FOUTREN Paul 00:31:48   63 00:09:39 00:09:39 LES HERBY OTN 11,321 05:18
64 27 GHYS Gérald TISON Vincent 00:31:51   64 00:09:42 00:09:42 LES Z'ZAMIS 11,303 05:19
65 20 DEBAS Gérard ANDRU Reynald 00:32:18   65 00:10:09 00:10:09 FOR EVER 11,146 05:23
66 90 LOYER Virginie POURRE Fabienne 00:32:33   66 00:10:24 00:10:24 L AGENCE TOUT RISQUE 11,060 05:26
67 39 BOUVILLE Mélanie BRIDENNE Agnès 00:32:47   67 00:10:38 00:10:38 TEAM BACO FILLES 10,981 05:28
68 78 QUANDALLE Christophe DEBETTE   Clément 00:32:49   68 00:10:40 00:10:40 LES BOURNONVILLOIS 10,970 05:28
69 24 PRUDHOMME Georges DOUILLY Franck 00:32:56   69 00:10:47 00:10:47 DOUD'HOMME 10,931 05:29
70 77 LECERF Robin LECERF   Bastien 00:33:00   70 00:10:51 00:10:51 LES COUZ D'ESCAP 10,909 05:30
71 5 HURTRELLE Guyslain FEVRIER Cédric 00:33:03   71 00:10:54 00:10:54 TEAM OPALE COYOTE 2 10,893 05:30
72 38 LEPRETRE Charles GENTIT Berangère 00:33:17   72 00:11:08 00:11:08 LES NOVICES 10,816 05:33
73 45 POYER Hortense DAUDIER DE CASSINI   Amicie 00:33:38   73 00:11:29 00:11:29 LES FOYALLE 10,704 05:36
74 33 RINGARD Julien LIEGEOIS Gaelle 00:33:41   74 00:11:32 00:11:32 LES TOMBES RAIDEUR 10,688 05:37
75 51 DAGHEAUX Armel BODART   Jean-François 00:33:57   75 00:11:48 00:11:48 LES FOLIENS 10,604 05:40
76 62 LOBERT Vincent HANQUEZ Emmanuel 00:34:07   76 00:11:58 00:11:58 MANU TEAM 10,552 05:41
77 26 FILMOTTE Franck HANQUEZ Rudy 00:34:09   77 00:12:00 00:12:00 LES BRIOCHES 10,542 05:41
78 95 DELIANCOURT Laurent LECLERC   Laurent 00:34:39   78 00:12:30 00:12:30 LES CHTIOS 10,390 05:46
79 40 RYCKEBUSCH Stephane RYCKEBUSCH   Marie 00:35:41   79 00:13:32 00:13:32 RYCKY'S 10,089 05:57
80 54 BUCKMAN Laetitia BOYAVAL Charlotte 00:36:48   80 00:14:39 00:14:39 DUNKERQUE RAID AVENTURE 9,783 06:08
81 41 NEANT Stéphanie TKACZ Olivier 00:36:53   81 00:14:44 00:14:44 LES TOUQUETTOIS 9,761 06:09
82 60 VANDERZYPPE Catherine LESAGE   Magali 00:37:19   82 00:15:10 00:15:10 BANANAS 9,647 06:13
83 91 DE MONESTEL Frédérique ZYBENA Marc 00:37:30   83 00:15:21 00:15:21 BREAKRAIDERS 9,600 06:15
84 48 SEIGNEUR Carole GENNEBAUD Olivier 00:37:59   84 00:15:50 00:15:50 LES GROS SEINGES 9,478 06:20
85 57 GUERVILLE Noémie BEZEAU Thibault 00:38:04   85 00:15:55 00:15:55 COUSIN & COUSINE 9,457 06:21
86 82 DELATTRE David BULOT Stéphane 00:39:09   86 00:17:00 00:17:00 LES ZOULOUS 9,195 06:31
87 2 BLOUIN Samuel BLOUIN Delphine 00:39:22   87 00:17:13 00:17:13 LES SAMOUREUX 9,145 06:34
88 19 HENOT Romain HERALY Julien 00:41:53   88 00:19:44 00:19:44 THE J.R.H TEAM 8,595 06:59
89 14 DUCLOY Alexandra SUEUR Mélanie 00:50:25   89 00:28:16 00:28:16 LES SENEGAZELLES DE SPORT EVASION DES 2 CAPS 7,140 08:24